Time;durP1;ratioP1;P1;durP2;ratioP2;P2;SDS_P1;SDS_P2;PMS_P1;PMS_P2;Temp;Humidity;BMP_temperature;BMP_pressure;BME280_temperature;BME280_humidity;BME280_pressure;Samples;Min_cycle;Max_cycle;Signal;HPM_P1;HPM_P2
2022/08/19 00:00:29;;;;;;;35.45;31.83;;;19.00;99.90;;;;;;5003852;28;20049;-64
2022/08/19 00:02:55;;;;;;;35.60;31.27;;;19.00;99.90;;;;;;4998419;28;20031;-63
2022/08/19 00:05:22;;;;;;;32.88;29.45;;;19.00;99.90;;;;;;4998967;28;20030;-64
2022/08/19 00:07:49;;;;;;;29.95;27.08;;;19.00;99.90;;;;;;5000425;28;20118;-63
2022/08/19 00:10:16;;;;;;;29.45;26.67;;;19.00;99.90;;;;;;4996238;28;20088;-65
2022/08/19 00:12:42;;;;;;;29.23;26.40;;;19.00;99.90;;;;;;4999923;28;20037;-63
2022/08/19 00:15:11;;;;;;;30.80;27.75;;;19.00;99.90;;;;;;4998016;28;20026;-63
2022/08/19 00:17:42;;;;;;;28.65;25.95;;;19.00;99.90;;;;;;5000789;28;20039;-62
2022/08/19 00:20:10;;;;;;;29.60;26.80;;;19.00;99.90;;;;;;4994966;28;20029;-64
2022/08/19 00:22:37;;;;;;;32.53;29.02;;;19.00;99.90;;;;;;4997595;28;20049;-64
2022/08/19 00:25:03;;;;;;;30.80;27.55;;;19.00;99.90;;;;;;5003168;28;20085;-63
2022/08/19 00:27:28;;;;;;;33.80;30.35;;;19.00;99.90;;;;;;4999990;28;20117;-65
2022/08/19 00:29:54;;;;;;;35.45;31.13;;;19.00;99.90;;;;;;5000290;28;20110;-63
2022/08/19 00:32:20;;;;;;;31.30;28.30;;;19.00;99.90;;;;;;4999156;28;20041;-64
2022/08/19 00:34:46;;;;;;;32.45;28.70;;;18.90;99.90;;;;;;4991803;28;20057;-64
2022/08/19 00:37:12;;;;;;;30.35;27.27;;;18.90;99.90;;;;;;4997671;28;20486;-65
2022/08/19 00:39:38;;;;;;;34.92;30.83;;;18.90;99.90;;;;;;4998861;28;20095;-63
2022/08/19 00:42:06;;;;;;;30.85;27.63;;;18.90;99.90;;;;;;4999600;28;20310;-63
2022/08/19 00:44:32;;;;;;;32.65;29.20;;;18.90;99.90;;;;;;5000822;28;20148;-63
2022/08/19 00:46:58;;;;;;;34.10;30.42;;;18.80;99.90;;;;;;4999887;28;20490;-63
2022/08/19 00:49:24;;;;;;;39.25;33.05;;;18.80;99.90;;;;;;4999888;28;20621;-63
2022/08/19 00:51:55;;;;;;;36.90;32.88;;;18.80;99.90;;;;;;4996480;28;20064;-63
2022/08/19 00:54:21;;;;;;;38.08;33.55;;;18.70;99.90;;;;;;5001886;28;20087;-63
2022/08/19 00:56:48;;;;;;;34.58;30.70;;;18.70;99.90;;;;;;4996946;28;20025;-67
2022/08/19 00:59:15;;;;;;;36.15;32.25;;;18.70;99.90;;;;;;4983982;28;20042;-63
2022/08/19 01:01:43;;;;;;;32.67;29.45;;;18.70;99.90;;;;;;5000064;28;20104;-65
2022/08/19 01:04:09;;;;;;;32.92;29.30;;;18.70;99.90;;;;;;4998079;28;20026;-63
2022/08/19 01:06:38;;;;;;;33.13;29.73;;;18.60;99.90;;;;;;4997809;28;20076;-63
2022/08/19 01:09:04;;;;;;;36.10;30.70;;;18.60;99.90;;;;;;4995929;28;20071;-66
2022/08/19 01:11:34;;;;;;;32.95;29.73;;;18.60;99.90;;;;;;4994756;28;20026;-65
2022/08/19 01:13:59;;;;;;;35.42;31.80;;;18.60;99.90;;;;;;4994962;28;20525;-65
2022/08/19 01:16:28;;;;;;;34.92;31.15;;;18.60;99.90;;;;;;4998459;28;20036;-62
2022/08/19 01:18:53;;;;;;;34.38;30.85;;;18.70;99.90;;;;;;4995681;28;20517;-65
2022/08/19 01:21:49;;;;;;;36.95;33.03;;;18.70;99.90;;;;;;4995791;28;20035;-63
2022/08/19 01:24:15;;;;;;;36.05;32.20;;;18.70;99.90;;;;;;4995486;28;20029;-63
2022/08/19 01:26:44;;;;;;;33.47;29.92;;;18.70;99.90;;;;;;5002741;28;20097;-63
2022/08/19 01:29:11;;;;;;;34.45;29.05;;;18.70;99.90;;;;;;4997756;28;20291;-63
2022/08/19 01:31:39;;;;;;;37.90;32.92;;;18.70;99.90;;;;;;4999981;28;20050;-65
2022/08/19 01:34:05;;;;;;;38.10;33.83;;;18.70;99.90;;;;;;4995837;28;20034;-66
2022/08/19 01:36:41;;;;;;;35.95;32.05;;;18.70;99.90;;;;;;4996590;28;20393;-63
2022/08/19 01:39:11;;;;;;;34.95;31.30;;;18.70;99.90;;;;;;4995286;28;20728;-63
2022/08/19 01:41:37;;;;;;;39.95;31.35;;;18.70;99.90;;;;;;4995908;28;20053;-66
2022/08/19 01:44:03;;;;;;;31.88;28.73;;;18.80;99.90;;;;;;4997567;28;20057;-63
2022/08/19 01:46:30;;;;;;;32.13;28.75;;;18.80;99.90;;;;;;4993938;28;20056;-63
2022/08/19 01:48:56;;;;;;;31.38;28.23;;;18.80;99.90;;;;;;4996238;28;20072;-63
2022/08/19 01:51:22;;;;;;;30.70;26.90;;;18.80;99.90;;;;;;5001635;28;20058;-63
2022/08/19 01:53:50;;;;;;;34.92;31.20;;;18.80;99.90;;;;;;4998454;28;20112;-63
2022/08/19 01:56:16;;;;;;;33.45;30.00;;;18.90;99.90;;;;;;4997203;28;20033;-65
2022/08/19 01:58:50;;;;;;;32.25;28.98;;;18.90;99.90;;;;;;4996228;28;20031;-63
2022/08/19 02:01:16;;;;;;;34.78;28.48;;;18.90;99.90;;;;;;4993882;28;20037;-64
2022/08/19 02:03:42;;;;;;;33.55;29.98;;;18.90;99.90;;;;;;4994745;28;20498;-63
2022/08/19 02:06:08;;;;;;;30.88;27.60;;;18.90;99.90;;;;;;4998815;28;20036;-66
2022/08/19 02:08:36;;;;;;;36.13;30.73;;;18.90;99.90;;;;;;4997561;28;20029;-66
2022/08/19 02:11:02;;;;;;;33.50;29.88;;;18.90;99.90;;;;;;4999570;28;20018;-66
2022/08/19 02:13:28;;;;;;;32.78;29.60;;;18.90;99.90;;;;;;4997615;28;20393;-65
2022/08/19 02:15:54;;;;;;;33.67;29.52;;;18.90;99.90;;;;;;5002375;28;20485;-65
2022/08/19 02:18:23;;;;;;;34.63;31.02;;;18.90;99.90;;;;;;5000962;28;20080;-66
2022/08/19 02:20:49;;;;;;;33.72;30.35;;;18.90;99.90;;;;;;4997072;28;20038;-64
2022/08/19 02:23:16;;;;;;;31.42;28.45;;;18.90;99.90;;;;;;4995924;28;20397;-64
2022/08/19 02:25:44;;;;;;;33.53;30.17;;;19.00;99.90;;;;;;4995254;28;20026;-63
2022/08/19 02:28:11;;;;;;;33.05;29.73;;;19.00;99.90;;;;;;4997728;28;20060;-63
2022/08/19 02:30:38;;;;;;;33.15;29.88;;;19.00;99.90;;;;;;4998552;28;20022;-64
2022/08/19 02:33:04;;;;;;;30.80;27.63;;;19.00;99.90;;;;;;4997198;28;20018;-63
2022/08/19 02:35:30;;;;;;;30.40;27.30;;;19.00;99.90;;;;;;5002230;28;20477;-63
2022/08/19 02:40:41;;;;;;;28.27;25.58;;;19.00;99.90;;;;;;4994475;28;20567;-62
2022/08/19 02:43:08;;;;;;;31.38;24.35;;;19.00;99.90;;;;;;5000477;28;20041;-66
2022/08/19 02:45:41;;;;;;;26.33;23.90;;;19.10;99.90;;;;;;4994787;28;20038;-64
2022/08/19 02:48:09;;;;;;;25.10;22.80;;;19.00;99.90;;;;;;4995906;28;20113;-62
2022/08/19 02:50:39;;;;;;;23.05;21.25;;;19.10;99.90;;;;;;4991179;28;20058;-64
2022/08/19 02:53:06;;;;;;;24.97;22.50;;;19.10;99.90;;;;;;4999804;28;20042;-63
2022/08/19 02:55:32;;;;;;;25.10;22.63;;;19.00;99.90;;;;;;4999322;28;20022;-63
2022/08/19 02:57:59;;;;;;;27.85;25.00;;;19.00;99.90;;;;;;4997197;28;20026;-65
2022/08/19 03:00:26;;;;;;;26.33;23.95;;;19.00;99.90;;;;;;4994624;28;20038;-63
2022/08/19 03:02:52;;;;;;;26.33;24.08;;;19.00;99.90;;;;;;5001004;28;20033;-64
2022/08/19 03:05:18;;;;;;;28.67;26.08;;;19.00;99.90;;;;;;4997375;28;20019;-63
2022/08/19 03:07:43;;;;;;;25.38;23.10;;;19.00;99.90;;;;;;4994297;28;20417;-62
2022/08/19 03:10:09;;;;;;;25.30;23.10;;;19.00;99.90;;;;;;4996915;28;20517;-63
2022/08/19 03:12:37;;;;;;;27.15;24.58;;;19.00;99.90;;;;;;4994728;28;20030;-63
2022/08/19 03:15:06;;;;;;;28.73;25.95;;;19.00;99.90;;;;;;4991068;28;20014;-65
2022/08/19 03:17:31;;;;;;;27.00;24.58;;;19.00;99.90;;;;;;5001787;28;20110;-63
2022/08/19 03:19:57;;;;;;;24.88;22.58;;;19.00;99.90;;;;;;5000964;28;20116;-64
2022/08/19 03:22:23;;;;;;;26.95;24.30;;;19.00;99.90;;;;;;4995730;28;20478;-64
2022/08/19 03:24:48;;;;;;;28.05;25.38;;;19.10;99.90;;;;;;4995227;28;20253;-63
2022/08/19 03:27:14;;;;;;;27.23;24.58;;;19.10;99.90;;;;;;4999190;28;20093;-63
2022/08/19 03:29:40;;;;;;;26.45;23.85;;;19.00;99.90;;;;;;4997454;28;20030;-63
2022/08/19 03:32:06;;;;;;;25.65;23.25;;;19.00;99.90;;;;;;4994489;28;20038;-65
2022/08/19 03:34:34;;;;;;;26.63;24.08;;;19.10;99.90;;;;;;4998109;28;20056;-64
2022/08/19 03:37:11;;;;;;;26.05;23.50;;;19.10;99.90;;;;;;4994955;28;20034;-63
2022/08/19 03:39:39;;;;;;;24.42;22.33;;;19.10;99.90;;;;;;4996586;28;20034;-63
2022/08/19 03:42:05;;;;;;;23.60;21.75;;;19.00;99.90;;;;;;4997031;28;20478;-63
2022/08/19 03:44:32;;;;;;;25.73;23.42;;;19.10;99.90;;;;;;4996489;28;20026;-63
2022/08/19 03:46:59;;;;;;;25.63;23.27;;;19.10;99.90;;;;;;5002899;28;20026;-63
2022/08/19 03:49:29;;;;;;;27.10;24.70;;;19.10;99.90;;;;;;4997161;28;20463;-63
2022/08/19 03:51:56;;;;;;;24.15;21.80;;;19.10;99.90;;;;;;4995561;28;20100;-63
2022/08/19 03:54:24;;;;;;;25.98;23.60;;;19.10;99.90;;;;;;4999949;28;20031;-62
2022/08/19 03:56:53;;;;;;;26.27;23.63;;;19.10;99.90;;;;;;4997727;28;20104;-63
2022/08/19 03:59:25;;;;;;;26.95;24.60;;;19.10;99.90;;;;;;5001888;28;20045;-62
2022/08/19 04:01:53;;;;;;;27.52;24.60;;;19.10;99.90;;;;;;4999111;28;20026;-64
2022/08/19 04:04:18;;;;;;;27.05;24.65;;;19.10;99.90;;;;;;4998623;28;20022;-62
2022/08/19 04:06:46;;;;;;;25.17;23.20;;;19.10;99.90;;;;;;5002441;28;20037;-63
2022/08/19 04:09:11;;;;;;;27.65;24.85;;;19.10;99.90;;;;;;5002402;28;20110;-63
2022/08/19 04:11:49;;;;;;;26.50;24.00;;;19.10;99.90;;;;;;4996970;28;20112;-65
2022/08/19 04:14:18;;;;;;;24.83;22.65;;;19.10;99.90;;;;;;5001586;28;20084;-62
2022/08/19 04:16:46;;;;;;;25.17;23.05;;;19.00;99.90;;;;;;4996462;28;20034;-63
2022/08/19 04:19:13;;;;;;;24.52;22.20;;;19.00;99.90;;;;;;5004721;28;20108;-63
2022/08/19 04:21:40;;;;;;;26.27;23.95;;;19.00;99.90;;;;;;4998660;28;20030;-63
2022/08/19 04:24:06;;;;;;;26.67;24.23;;;19.00;99.90;;;;;;4998453;28;20149;-64
2022/08/19 04:26:34;;;;;;;26.70;23.95;;;18.90;99.90;;;;;;4999768;28;20100;-63
2022/08/19 04:29:04;;;;;;;28.40;25.80;;;18.90;99.90;;;;;;5000773;28;20109;-64
2022/08/19 04:31:35;;;;;;;27.45;24.63;;;18.90;99.90;;;;;;4997130;28;20038;-65
2022/08/19 04:34:03;;;;;;;27.70;25.23;;;18.80;99.90;;;;;;5003639;28;20516;-63
2022/08/19 04:36:31;;;;;;;25.45;23.00;;;18.90;99.90;;;;;;4996575;28;20114;-66
2022/08/19 04:38:59;;;;;;;24.67;22.63;;;19.00;99.90;;;;;;5002609;28;20029;-62
2022/08/19 04:44:10;;;;;;;24.27;22.27;;;19.00;99.90;;;;;;5000730;28;20566;-63
2022/08/19 04:46:36;;;;;;;23.95;21.75;;;19.00;99.90;;;;;;4995676;28;20035;-63
2022/08/19 04:49:05;;;;;;;22.70;20.80;;;19.10;99.90;;;;;;4998788;28;20585;-63
2022/08/19 04:51:31;;;;;;;24.33;22.25;;;19.10;99.90;;;;;;5001364;28;20037;-64
2022/08/19 04:53:59;;;;;;;24.00;21.90;;;19.10;99.90;;;;;;5002761;28;20029;-63
2022/08/19 04:56:26;;;;;;;22.65;20.92;;;19.10;99.90;;;;;;4997779;28;20018;-65
2022/08/19 04:58:53;;;;;;;22.23;20.50;;;19.10;99.90;;;;;;4998878;28;20485;-64
2022/08/19 05:01:28;;;;;;;22.70;20.90;;;19.10;99.90;;;;;;4999675;28;20030;-63
2022/08/19 05:03:54;;;;;;;22.85;20.95;;;19.20;99.90;;;;;;4999083;28;20057;-66
2022/08/19 05:06:22;;;;;;;21.75;19.95;;;19.20;99.90;;;;;;5001679;28;20030;-64
2022/08/19 05:08:48;;;;;;;25.02;22.92;;;19.20;99.90;;;;;;4997522;28;20088;-64
2022/08/19 05:11:17;;;;;;;23.15;21.35;;;19.20;99.90;;;;;;5000364;28;20033;-63
2022/08/19 05:13:44;;;;;;;24.90;22.67;;;19.20;99.90;;;;;;4998410;28;20057;-63
2022/08/19 05:16:12;;;;;;;25.30;23.00;;;19.20;99.90;;;;;;4995512;28;20498;-63
2022/08/19 05:24:08;;;;;;;23.30;21.40;;;19.30;99.90;;;;;;4999238;28;20080;-66
2022/08/19 05:26:45;;;;;;;23.83;21.60;;;19.30;99.90;;;;;;4999010;28;20437;-64
2022/08/19 05:29:13;;;;;;;26.55;23.92;;;19.30;99.90;;;;;;4978130;28;20060;-64
2022/08/19 05:31:39;;;;;;;23.80;21.67;;;19.40;99.90;;;;;;4971272;28;20031;-63
2022/08/19 05:34:06;;;;;;;23.95;21.45;;;19.40;99.90;;;;;;4979065;28;20515;-64
2022/08/19 05:36:40;;;;;;;26.00;23.80;;;19.40;99.90;;;;;;4975583;28;20148;-62
2022/08/19 05:39:08;;;;;;;25.40;23.08;;;19.40;99.90;;;;;;4978066;28;20449;-63
2022/08/19 05:41:34;;;;;;;24.75;22.40;;;19.40;99.90;;;;;;4975862;28;20023;-63
2022/08/19 05:44:09;;;;;;;25.50;23.10;;;19.50;99.90;;;;;;4975650;28;20101;-62
2022/08/19 05:46:37;;;;;;;27.08;24.38;;;19.50;99.90;;;;;;4976066;28;20023;-63
2022/08/19 05:49:04;;;;;;;27.45;24.95;;;19.50;99.90;;;;;;4978652;28;20151;-62
2022/08/19 05:51:30;;;;;;;27.75;25.00;;;19.50;99.90;;;;;;4976870;28;20110;-62
2022/08/19 05:53:56;;;;;;;28.15;25.42;;;19.40;99.90;;;;;;4978590;28;20110;-65
2022/08/19 05:56:21;;;;;;;27.15;24.67;;;19.40;99.90;;;;;;4980282;28;20023;-62
2022/08/19 05:58:47;;;;;;;27.60;24.95;;;19.50;99.90;;;;;;4978638;28;20027;-63
2022/08/19 06:01:19;;;;;;;27.30;24.95;;;19.50;99.90;;;;;;4978511;28;20457;-63
2022/08/19 06:03:45;;;;;;;27.63;25.20;;;19.50;99.90;;;;;;4974101;28;20606;-62
2022/08/19 06:06:13;;;;;;;26.38;23.90;;;19.60;99.90;;;;;;4971275;28;20045;-63
2022/08/19 06:08:39;;;;;;;26.70;24.20;;;19.60;99.90;;;;;;4984798;28;20170;-63
2022/08/19 06:11:24;;;;;;;25.95;23.63;;;19.60;99.90;;;;;;4971904;28;20066;-65
2022/08/19 06:13:52;;;;;;;25.88;23.48;;;19.60;99.90;;;;;;4999370;28;20025;-64
2022/08/19 06:16:22;;;;;;;26.45;24.05;;;19.60;99.90;;;;;;5000941;28;20027;-63
2022/08/19 06:18:52;;;;;;;27.60;25.13;;;19.60;99.90;;;;;;4995820;28;20022;-62
2022/08/19 06:21:29;;;;;;;29.92;26.98;;;19.60;99.90;;;;;;4995107;28;20049;-62
2022/08/19 06:23:58;;;;;;;28.85;25.83;;;19.70;99.90;;;;;;4996513;28;20033;-61
2022/08/19 06:26:24;;;;;;;29.45;26.40;;;19.60;99.90;;;;;;4997672;28;20076;-62
2022/08/19 06:28:50;;;;;;;33.45;26.17;;;19.70;99.90;;;;;;4995409;28;20038;-63
2022/08/19 06:31:24;;;;;;;32.15;27.02;;;19.70;99.90;;;;;;4997277;28;20081;-63
2022/08/19 06:33:50;;;;;;;29.95;26.85;;;19.70;99.90;;;;;;4993648;28;20065;-62
2022/08/19 06:36:29;;;;;;;27.52;24.67;;;19.70;99.90;;;;;;4995965;28;20493;-63
2022/08/19 06:38:57;;;;;;;27.77;24.92;;;19.70;99.90;;;;;;4993668;28;20030;-63
2022/08/19 06:41:24;;;;;;;29.77;25.77;;;19.80;99.90;;;;;;4998848;28;20093;-63
2022/08/19 06:43:50;;;;;;;27.88;25.27;;;19.80;99.90;;;;;;4998248;28;20022;-63
2022/08/19 06:46:18;;;;;;;28.20;25.38;;;19.90;99.90;;;;;;4993479;28;20023;-66
2022/08/19 06:48:44;;;;;;;31.30;27.52;;;19.90;99.90;;;;;;5002630;28;20031;-63
2022/08/19 06:51:11;;;;;;;28.42;25.70;;;19.90;99.90;;;;;;4995373;28;20023;-63
2022/08/19 06:53:39;;;;;;;30.00;26.42;;;19.90;99.90;;;;;;4997573;28;20106;-64
2022/08/19 06:56:05;;;;;;;31.20;27.73;;;19.90;99.90;;;;;;4997517;28;20030;-65
2022/08/19 06:58:34;;;;;;;28.38;25.52;;;19.90;99.90;;;;;;4996084;28;20118;-66
2022/08/19 07:01:03;;;;;;;29.60;26.38;;;19.90;99.90;;;;;;4999457;28;20433;-63
2022/08/19 07:03:32;;;;;;;30.92;27.65;;;20.00;99.90;;;;;;4998767;28;20057;-65
2022/08/19 07:06:05;;;;;;;30.20;27.30;;;20.10;99.90;;;;;;4996791;28;20085;-63
2022/08/19 07:08:33;;;;;;;31.35;28.00;;;20.10;99.90;;;;;;4993357;28;20022;-64
2022/08/19 07:10:58;;;;;;;30.08;27.17;;;20.20;99.90;;;;;;4994151;28;20050;-63
2022/08/19 07:13:24;;;;;;;32.08;27.98;;;20.20;99.90;;;;;;5000970;28;20095;-63
2022/08/19 07:15:50;;;;;;;30.50;26.33;;;20.30;99.90;;;;;;4993269;28;20037;-63
2022/08/19 07:18:19;;;;;;;30.15;26.92;;;20.40;99.90;;;;;;4999989;28;20033;-63
2022/08/19 07:20:45;;;;;;;31.73;27.40;;;20.40;99.90;;;;;;5001196;28;20031;-63
2022/08/19 07:23:11;;;;;;;29.38;25.98;;;20.50;99.90;;;;;;4998013;28;20394;-62
2022/08/19 07:25:38;;;;;;;29.48;26.55;;;20.60;99.90;;;;;;5000835;28;20069;-63
2022/08/19 07:28:03;;;;;;;29.58;25.83;;;20.70;99.90;;;;;;5000348;28;20034;-63
2022/08/19 07:30:30;;;;;;;34.00;25.98;;;20.80;99.90;;;;;;5003135;28;20037;-63
2022/08/19 07:32:56;;;;;;;33.55;24.83;;;20.90;99.90;;;;;;5001812;28;20053;-66
2022/08/19 07:35:23;;;;;;;27.50;24.63;;;21.10;99.90;;;;;;4996647;28;20026;-66
2022/08/19 07:37:49;;;;;;;24.98;22.67;;;21.30;99.90;;;;;;4998877;28;20561;-63
2022/08/19 07:40:15;;;;;;;25.05;22.55;;;21.50;99.90;;;;;;4998118;28;20046;-63
2022/08/19 07:42:42;;;;;;;24.80;22.27;;;21.60;99.90;;;;;;5001803;28;20031;-64
2022/08/19 07:45:08;;;;;;;25.25;23.10;;;21.60;99.90;;;;;;5000823;28;20026;-63
2022/08/19 07:47:34;;;;;;;25.80;23.17;;;21.70;99.90;;;;;;5003257;28;20492;-64
2022/08/19 07:49:59;;;;;;;25.63;23.05;;;21.80;99.90;;;;;;4998685;28;20035;-67
2022/08/19 07:52:25;;;;;;;24.77;22.55;;;21.90;99.90;;;;;;5002450;28;20065;-63
2022/08/19 07:54:51;;;;;;;24.73;22.50;;;22.00;99.90;;;;;;4999564;28;20056;-64
2022/08/19 07:57:17;;;;;;;26.13;23.75;;;22.00;99.90;;;;;;5000774;28;20049;-63
2022/08/19 07:59:42;;;;;;;25.55;22.95;;;22.10;99.90;;;;;;5000955;28;20023;-63
2022/08/19 08:02:09;;;;;;;26.48;24.02;;;22.10;99.90;;;;;;4997357;28;20027;-63
2022/08/19 08:10:05;;;;;;;25.52;23.05;;;22.10;99.90;;;;;;4998626;28;20437;-63
2022/08/19 08:12:37;;;;;;;23.80;21.63;;;22.10;99.90;;;;;;4996989;28;20026;-63
2022/08/19 08:15:10;;;;;;;28.60;25.58;;;22.20;99.90;;;;;;4998467;28;20036;-63
2022/08/19 08:17:37;;;;;;;28.17;25.42;;;22.10;99.90;;;;;;5003803;28;20392;-63
2022/08/19 08:20:08;;;;;;;27.45;24.60;;;22.20;99.90;;;;;;5000758;28;20065;-63
2022/08/19 08:25:22;;;;;;;26.52;24.13;;;22.20;99.90;;;;;;4998872;28;20117;-64
2022/08/19 08:27:49;;;;;;;27.60;24.70;;;22.30;99.90;;;;;;4993931;28;20023;-63
2022/08/19 08:30:26;;;;;;;27.35;24.58;;;22.40;99.90;;;;;;5002147;28;20512;-64
2022/08/19 08:32:52;;;;;;;31.75;25.67;;;22.60;99.90;;;;;;5001752;28;20022;-65
2022/08/19 08:35:21;;;;;;;27.55;24.77;;;22.70;99.90;;;;;;4999578;28;20420;-63
2022/08/19 08:37:49;;;;;;;27.83;24.83;;;22.80;99.90;;;;;;4997386;28;20034;-65
2022/08/19 08:40:41;;;;;;;33.03;25.63;;;23.10;99.90;;;;;;4997819;28;20382;-63
2022/08/19 08:43:26;;;;;;;27.13;24.40;;;23.30;99.90;;;;;;4997201;28;20031;-65
2022/08/19 08:46:03;;;;;;;27.45;24.08;;;23.30;99.90;;;;;;4996713;28;20030;-64
2022/08/19 08:48:53;;;;;;;30.98;25.17;;;23.20;99.90;;;;;;5000918;28;20031;-62
2022/08/19 08:51:34;;;;;;;35.75;26.13;;;23.20;99.90;;;;;;4994437;28;20026;-66
2022/08/19 08:54:03;;;;;;;29.02;25.10;;;23.10;99.90;;;;;;5002028;28;20041;-62
2022/08/19 08:56:29;;;;;;;30.83;24.45;;;23.00;99.90;;;;;;4999187;28;20022;-62
2022/08/19 08:59:38;;;;;;;27.30;24.65;;;22.90;99.90;;;;;;4998167;28;20026;-63
2022/08/19 09:02:04;;;;;;;27.23;23.23;;;22.90;99.90;;;;;;4935002;29;20130;-64
2022/08/19 09:04:30;;;;;;;25.88;23.45;;;22.90;99.90;;;;;;4941357;29;20414;-63
2022/08/19 09:07:07;;;;;;;24.67;22.48;;;23.00;99.90;;;;;;4964736;28;20117;-66
2022/08/19 09:09:46;;;;;;;24.38;22.15;;;22.90;99.90;;;;;;4999533;28;20097;-62
2022/08/19 09:12:34;;;;;;;24.90;22.65;;;22.70;99.90;;;;;;4999333;28;20030;-62
2022/08/19 09:15:08;;;;;;;25.90;23.27;;;22.60;99.90;;;;;;4995449;28;20030;-61
2022/08/19 09:17:38;;;;;;;25.15;22.73;;;22.60;99.90;;;;;;4996351;28;20089;-64
2022/08/19 09:20:15;;;;;;;25.13;22.25;;;22.60;99.90;;;;;;5000367;28;20030;-61
2022/08/19 09:22:45;;;;;;;23.45;21.23;;;22.60;99.90;;;;;;5001202;28;20105;-62
2022/08/19 09:25:14;;;;;;;23.55;21.33;;;22.70;99.90;;;;;;4997935;28;20026;-63
2022/08/19 09:27:41;;;;;;;23.48;21.20;;;22.70;99.90;;;;;;4993847;28;20027;-61
2022/08/19 09:30:09;;;;;;;23.35;21.23;;;22.70;99.90;;;;;;4995832;28;20401;-63
2022/08/19 09:32:34;;;;;;;22.70;20.85;;;22.70;99.90;;;;;;5000372;28;20010;-62
2022/08/19 09:35:01;;;;;;;23.42;21.17;;;22.60;99.90;;;;;;4994261;28;20110;-65
2022/08/19 09:37:27;;;;;;;23.75;21.35;;;22.60;99.90;;;;;;4997210;28;20605;-62
2022/08/19 09:39:53;;;;;;;22.35;20.55;;;22.60;99.90;;;;;;4993757;28;20037;-62
2022/08/19 09:42:19;;;;;;;22.27;20.25;;;22.60;99.90;;;;;;4979905;28;21078;-66
2022/08/19 09:44:45;;;;;;;22.10;20.30;;;22.70;99.90;;;;;;4983697;28;20030;-64
2022/08/19 09:47:12;;;;;;;21.58;19.33;;;22.60;99.90;;;;;;4998061;28;20027;-62
2022/08/19 09:49:39;;;;;;;18.73;17.23;;;22.60;99.90;;;;;;4997505;28;20092;-63
2022/08/19 09:52:07;;;;;;;18.67;17.38;;;22.60;99.90;;;;;;4995387;28;20042;-63
2022/08/19 09:54:34;;;;;;;18.08;16.60;;;22.60;99.90;;;;;;4999485;28;20034;-62
2022/08/19 09:57:03;;;;;;;16.20;14.80;;;22.50;99.90;;;;;;4999409;28;20121;-62
2022/08/19 09:59:29;;;;;;;17.30;15.77;;;22.50;99.90;;;;;;5000026;28;20121;-62
2022/08/19 10:01:55;;;;;;;16.92;15.73;;;22.40;99.90;;;;;;5002273;28;20022;-62
2022/08/19 10:04:21;;;;;;;15.85;14.43;;;22.40;99.90;;;;;;4996881;28;20077;-62
2022/08/19 10:06:49;;;;;;;14.95;13.68;;;22.30;99.90;;;;;;4997790;28;20029;-62
2022/08/19 10:09:17;;;;;;;17.00;15.45;;;22.20;99.90;;;;;;4997821;28;20040;-63
2022/08/19 10:11:49;;;;;;;17.88;16.38;;;22.10;99.90;;;;;;4998602;28;20022;-64
2022/08/19 10:14:16;;;;;;;18.65;17.15;;;22.10;99.90;;;;;;4998325;28;20034;-63
2022/08/19 10:16:42;;;;;;;19.30;17.65;;;22.10;99.90;;;;;;4994758;28;20030;-62
2022/08/19 10:19:09;;;;;;;20.02;18.45;;;22.10;99.90;;;;;;5000299;28;20034;-62
2022/08/19 10:21:35;;;;;;;21.23;19.15;;;22.10;99.90;;;;;;4998162;28;20037;-63
2022/08/19 10:24:05;;;;;;;19.45;17.52;;;22.00;99.90;;;;;;4998567;28;20054;-62
2022/08/19 10:26:38;;;;;;;20.38;18.65;;;22.00;99.90;;;;;;4994901;28;20069;-63
2022/08/19 10:29:05;;;;;;;19.27;17.77;;;22.00;99.90;;;;;;5003585;28;20026;-62
2022/08/19 10:31:33;;;;;;;19.08;17.42;;;22.00;99.90;;;;;;4994539;28;20168;-64
2022/08/19 10:34:00;;;;;;;19.48;17.80;;;22.00;99.90;;;;;;4995606;28;20034;-61
2022/08/19 10:36:29;;;;;;;18.63;16.73;;;22.00;99.90;;;;;;4991009;28;20022;-61
2022/08/19 10:38:58;;;;;;;18.73;17.15;;;22.00;99.90;;;;;;4998431;28;20034;-61
2022/08/19 10:41:27;;;;;;;17.90;16.35;;;22.10;99.90;;;;;;4998856;28;20022;-63
2022/08/19 10:43:54;;;;;;;17.10;15.88;;;22.20;99.90;;;;;;4995552;28;20040;-63
2022/08/19 10:46:22;;;;;;;17.98;16.23;;;22.30;99.90;;;;;;5001108;28;20393;-65
2022/08/19 10:48:49;;;;;;;17.10;15.70;;;22.30;99.90;;;;;;4995773;28;20394;-64
2022/08/19 10:54:01;;;;;;;17.25;15.85;;;22.30;99.90;;;;;;4999477;28;20042;-63
2022/08/19 10:59:13;;;;;;;16.25;14.75;;;22.20;99.90;;;;;;4999957;28;20033;-66
2022/08/19 11:01:42;;;;;;;14.43;13.32;;;22.10;99.90;;;;;;5001589;28;20038;-63
2022/08/19 11:04:10;;;;;;;14.13;13.10;;;22.10;99.90;;;;;;4986489;28;20145;-63
2022/08/19 11:06:38;;;;;;;11.13;9.52;;;22.20;99.90;;;;;;4994138;28;20026;-61
2022/08/19 11:09:05;;;;;;;7.38;6.78;;;22.30;99.90;;;;;;4997848;28;20022;-64
2022/08/19 11:11:32;;;;;;;6.32;5.72;;;22.40;99.90;;;;;;5000406;28;20021;-62
2022/08/19 11:13:58;;;;;;;5.38;4.97;;;22.40;99.90;;;;;;5000029;28;20026;-63
2022/08/19 11:16:27;;;;;;;5.05;4.32;;;22.60;99.90;;;;;;4999516;28;20027;-63
2022/08/19 11:18:58;;;;;;;4.50;4.10;;;22.70;99.90;;;;;;4996984;28;20034;-63
2022/08/19 11:21:38;;;;;;;4.13;3.70;;;22.90;99.90;;;;;;5007584;28;20414;-64
2022/08/19 11:24:09;;;;;;;4.53;4.18;;;23.00;99.90;;;;;;4999121;28;20034;-64
2022/08/19 11:26:36;;;;;;;4.22;3.83;;;23.20;99.90;;;;;;4998573;28;20498;-63
2022/08/19 11:29:03;;;;;;;4.13;3.72;;;23.40;99.90;;;;;;4999673;28;20416;-64
2022/08/19 11:31:31;;;;;;;4.15;3.40;;;23.70;99.90;;;;;;4998973;28;20057;-63
2022/08/19 11:33:59;;;;;;;3.85;3.25;;;24.00;99.90;;;;;;4999157;28;20034;-63
2022/08/19 11:36:26;;;;;;;2.70;2.47;;;24.30;99.90;;;;;;5002299;28;20105;-63
2022/08/19 11:38:52;;;;;;;2.95;2.65;;;24.40;99.90;;;;;;4999185;28;20653;-65
2022/08/19 11:41:19;;;;;;;4.03;3.00;;;24.60;99.90;;;;;;5000322;28;20105;-63
2022/08/19 11:43:45;;;;;;;3.20;2.90;;;24.50;99.90;;;;;;4996829;28;20033;-63
2022/08/19 11:46:14;;;;;;;3.22;2.67;;;24.40;99.90;;;;;;5005801;28;20026;-63
2022/08/19 11:48:40;;;;;;;2.75;2.55;;;24.20;99.90;;;;;;5000847;28;20022;-63
2022/08/19 11:51:12;;;;;;;3.15;2.85;;;24.10;99.90;;;;;;4998974;28;20413;-64
2022/08/19 11:53:38;;;;;;;2.83;2.63;;;24.00;99.90;;;;;;5000344;28;20038;-63
2022/08/19 11:56:06;;;;;;;3.05;2.72;;;23.80;99.90;;;;;;5000506;28;20092;-64
2022/08/19 11:58:33;;;;;;;2.67;2.47;;;23.80;99.90;;;;;;5002901;28;20039;-62
2022/08/19 12:00:59;;;;;;;4.22;2.20;;;23.60;99.90;;;;;;5003288;28;20447;-63
2022/08/19 12:03:25;;;;;;;2.80;2.30;;;23.50;99.90;;;;;;5000429;28;20030;-66
2022/08/19 12:05:51;;;;;;;3.55;2.75;;;23.40;99.90;;;;;;5000134;28;20088;-63
2022/08/19 12:08:17;;;;;;;4.28;3.45;;;23.30;99.90;;;;;;4998630;28;20022;-63
2022/08/19 12:10:45;;;;;;;3.35;3.15;;;23.20;99.90;;;;;;4993534;28;20122;-65
2022/08/19 12:13:13;;;;;;;3.42;3.22;;;23.10;99.90;;;;;;4996970;28;20486;-63
2022/08/19 12:15:40;;;;;;;2.80;2.60;;;23.00;99.90;;;;;;4998679;28;20026;-63
2022/08/19 12:18:07;;;;;;;3.97;3.67;;;23.00;99.90;;;;;;4999365;28;20030;-63
2022/08/19 12:20:38;;;;;;;4.72;4.32;;;23.20;99.90;;;;;;4999729;28;20432;-62
2022/08/19 12:23:04;;;;;;;3.97;3.53;;;23.30;99.90;;;;;;4998299;28;20031;-63
2022/08/19 12:25:31;;;;;;;4.25;3.95;;;23.40;99.90;;;;;;5000332;28;20092;-66
2022/08/19 12:27:57;;;;;;;4.57;4.22;;;23.40;99.90;;;;;;5000103;28;20030;-63
2022/08/19 12:30:24;;;;;;;4.82;4.43;;;23.30;99.90;;;;;;4999747;28;20022;-63
2022/08/19 12:32:51;;;;;;;4.47;4.18;;;23.30;99.90;;;;;;5002619;28;20031;-63
2022/08/19 12:35:19;;;;;;;4.45;4.15;;;23.20;99.90;;;;;;4994507;28;20454;-65
2022/08/19 12:37:46;;;;;;;5.35;4.32;;;23.20;99.90;;;;;;5000524;28;20033;-64
2022/08/19 12:40:14;;;;;;;5.75;5.35;;;23.20;99.90;;;;;;4996034;28;20683;-63
2022/08/19 12:42:43;;;;;;;6.03;5.63;;;23.20;99.90;;;;;;5004488;28;20909;-63
2022/08/19 12:45:11;;;;;;;6.72;6.10;;;23.20;99.90;;;;;;4996505;28;20018;-65
2022/08/19 12:47:37;;;;;;;6.72;6.22;;;23.20;99.90;;;;;;4997389;28;20109;-66
2022/08/19 12:50:04;;;;;;;6.30;5.88;;;23.20;99.90;;;;;;5001376;28;20122;-63
2022/08/19 12:52:29;;;;;;;6.07;5.57;;;23.30;99.90;;;;;;4994280;28;20038;-64
2022/08/19 12:54:57;;;;;;;7.72;7.00;;;23.40;99.90;;;;;;5000205;28;20034;-65
2022/08/19 12:57:25;;;;;;;7.38;6.78;;;23.50;99.90;;;;;;4997815;28;20375;-63
2022/08/19 12:59:54;;;;;;;7.22;6.65;;;23.60;99.90;;;;;;4995804;28;20034;-63